sensor_id;sensor_type;location;lat;lon;timestamp;P1;durP1;ratioP1;P2;durP2;ratioP2
72864;SDS011;61000;48.120;11.548;2022-07-22T00:02:08;15.88;;;14.13;;
72864;SDS011;61000;48.120;11.548;2022-07-22T00:04:35;16.15;;;14.10;;
72864;SDS011;61000;48.120;11.548;2022-07-22T00:07:02;15.57;;;13.98;;
72864;SDS011;61000;48.120;11.548;2022-07-22T00:09:30;17.38;;;14.32;;
72864;SDS011;61000;48.120;11.548;2022-07-22T00:11:58;16.90;;;13.80;;
72864;SDS011;61000;48.120;11.548;2022-07-22T00:14:25;16.38;;;14.27;;
72864;SDS011;61000;48.120;11.548;2022-07-22T00:16:52;17.38;;;14.52;;
72864;SDS011;61000;48.120;11.548;2022-07-22T00:19:19;17.25;;;14.02;;
72864;SDS011;61000;48.120;11.548;2022-07-22T00:21:47;15.82;;;14.02;;
72864;SDS011;61000;48.120;11.548;2022-07-22T00:24:13;17.30;;;13.98;;
72864;SDS011;61000;48.120;11.548;2022-07-22T00:26:42;19.27;;;16.02;;
72864;SDS011;61000;48.120;11.548;2022-07-22T00:29:09;17.35;;;13.73;;
72864;SDS011;61000;48.120;11.548;2022-07-22T00:31:36;15.52;;;13.93;;
72864;SDS011;61000;48.120;11.548;2022-07-22T00:34:03;17.05;;;14.13;;
72864;SDS011;61000;48.120;11.548;2022-07-22T00:36:30;16.05;;;13.98;;
72864;SDS011;61000;48.120;11.548;2022-07-22T00:38:57;16.42;;;13.52;;
72864;SDS011;61000;48.120;11.548;2022-07-22T00:41:25;16.58;;;13.50;;
72864;SDS011;61000;48.120;11.548;2022-07-22T00:43:54;17.15;;;13.98;;
72864;SDS011;61000;48.120;11.548;2022-07-22T00:46:24;14.95;;;12.95;;
72864;SDS011;61000;48.120;11.548;2022-07-22T00:48:51;18.90;;;14.18;;
72864;SDS011;61000;48.120;11.548;2022-07-22T00:51:19;17.48;;;13.75;;
72864;SDS011;61000;48.120;11.548;2022-07-22T00:53:48;16.80;;;13.57;;
72864;SDS011;61000;48.120;11.548;2022-07-22T00:56:16;16.92;;;13.68;;
72864;SDS011;61000;48.120;11.548;2022-07-22T00:58:45;17.92;;;14.85;;
72864;SDS011;61000;48.120;11.548;2022-07-22T01:01:15;17.10;;;13.60;;
72864;SDS011;61000;48.120;11.548;2022-07-22T01:03:42;17.00;;;12.75;;
72864;SDS011;61000;48.120;11.548;2022-07-22T01:06:09;15.23;;;13.20;;
72864;SDS011;61000;48.120;11.548;2022-07-22T01:08:36;17.30;;;13.15;;
72864;SDS011;61000;48.120;11.548;2022-07-22T01:11:08;19.60;;;15.50;;
72864;SDS011;61000;48.120;11.548;2022-07-22T01:13:35;13.40;;;11.95;;
72864;SDS011;61000;48.120;11.548;2022-07-22T01:16:03;17.25;;;13.82;;
72864;SDS011;61000;48.120;11.548;2022-07-22T01:18:32;14.50;;;12.90;;
72864;SDS011;61000;48.120;11.548;2022-07-22T01:21:00;15.75;;;13.10;;
72864;SDS011;61000;48.120;11.548;2022-07-22T01:23:27;15.55;;;13.13;;
72864;SDS011;61000;48.120;11.548;2022-07-22T01:25:54;15.88;;;13.05;;
72864;SDS011;61000;48.120;11.548;2022-07-22T01:28:23;15.27;;;13.50;;
72864;SDS011;61000;48.120;11.548;2022-07-22T01:30:50;14.30;;;12.80;;
72864;SDS011;61000;48.120;11.548;2022-07-22T01:33:17;15.57;;;12.95;;
72864;SDS011;61000;48.120;11.548;2022-07-22T01:35:45;16.63;;;14.27;;
72864;SDS011;61000;48.120;11.548;2022-07-22T01:38:13;16.02;;;13.50;;
72864;SDS011;61000;48.120;11.548;2022-07-22T01:40:41;19.42;;;14.02;;
72864;SDS011;61000;48.120;11.548;2022-07-22T01:43:09;18.67;;;14.48;;
72864;SDS011;61000;48.120;11.548;2022-07-22T01:45:37;15.40;;;13.68;;
72864;SDS011;61000;48.120;11.548;2022-07-22T01:48:04;17.42;;;13.45;;
72864;SDS011;61000;48.120;11.548;2022-07-22T01:50:31;20.70;;;13.98;;
72864;SDS011;61000;48.120;11.548;2022-07-22T01:52:58;17.83;;;13.95;;
72864;SDS011;61000;48.120;11.548;2022-07-22T01:55:28;14.05;;;12.55;;
72864;SDS011;61000;48.120;11.548;2022-07-22T01:57:54;15.15;;;12.48;;
72864;SDS011;61000;48.120;11.548;2022-07-22T02:00:27;14.88;;;12.45;;
72864;SDS011;61000;48.120;11.548;2022-07-22T02:02:54;16.52;;;13.63;;
72864;SDS011;61000;48.120;11.548;2022-07-22T02:05:21;15.00;;;13.40;;
72864;SDS011;61000;48.120;11.548;2022-07-22T02:07:49;17.85;;;13.82;;
72864;SDS011;61000;48.120;11.548;2022-07-22T02:10:19;14.35;;;12.85;;
72864;SDS011;61000;48.120;11.548;2022-07-22T02:12:47;18.15;;;13.40;;
72864;SDS011;61000;48.120;11.548;2022-07-22T02:15:15;15.73;;;13.27;;
72864;SDS011;61000;48.120;11.548;2022-07-22T02:17:44;17.10;;;14.18;;
72864;SDS011;61000;48.120;11.548;2022-07-22T02:20:11;14.60;;;13.02;;
72864;SDS011;61000;48.120;11.548;2022-07-22T02:22:38;14.43;;;12.88;;
72864;SDS011;61000;48.120;11.548;2022-07-22T02:25:06;18.52;;;13.23;;
72864;SDS011;61000;48.120;11.548;2022-07-22T02:27:33;14.82;;;13.13;;
72864;SDS011;61000;48.120;11.548;2022-07-22T02:30:02;14.70;;;12.32;;
72864;SDS011;61000;48.120;11.548;2022-07-22T02:32:30;18.40;;;13.77;;
72864;SDS011;61000;48.120;11.548;2022-07-22T02:34:57;16.98;;;13.32;;
72864;SDS011;61000;48.120;11.548;2022-07-22T02:37:24;16.38;;;13.52;;
72864;SDS011;61000;48.120;11.548;2022-07-22T02:39:51;16.25;;;13.10;;
72864;SDS011;61000;48.120;11.548;2022-07-22T02:42:18;15.27;;;13.00;;
72864;SDS011;61000;48.120;11.548;2022-07-22T02:44:48;13.63;;;12.07;;
72864;SDS011;61000;48.120;11.548;2022-07-22T02:47:17;20.05;;;13.57;;
72864;SDS011;61000;48.120;11.548;2022-07-22T02:49:44;16.42;;;13.30;;
72864;SDS011;61000;48.120;11.548;2022-07-22T02:52:12;18.50;;;13.93;;
72864;SDS011;61000;48.120;11.548;2022-07-22T02:54:39;16.05;;;13.02;;
72864;SDS011;61000;48.120;11.548;2022-07-22T02:57:06;17.80;;;13.05;;
72864;SDS011;61000;48.120;11.548;2022-07-22T02:59:34;15.18;;;12.85;;
72864;SDS011;61000;48.120;11.548;2022-07-22T03:02:02;15.80;;;12.95;;
72864;SDS011;61000;48.120;11.548;2022-07-22T03:04:31;19.40;;;13.60;;
72864;SDS011;61000;48.120;11.548;2022-07-22T03:06:58;16.48;;;13.23;;
72864;SDS011;61000;48.120;11.548;2022-07-22T03:09:25;17.50;;;12.50;;
72864;SDS011;61000;48.120;11.548;2022-07-22T03:11:52;15.05;;;12.00;;
72864;SDS011;61000;48.120;11.548;2022-07-22T03:14:19;18.92;;;13.30;;
72864;SDS011;61000;48.120;11.548;2022-07-22T03:16:47;17.55;;;13.27;;
72864;SDS011;61000;48.120;11.548;2022-07-22T03:19:14;15.88;;;12.48;;
72864;SDS011;61000;48.120;11.548;2022-07-22T03:21:46;18.00;;;13.65;;
72864;SDS011;61000;48.120;11.548;2022-07-22T03:24:13;16.60;;;13.98;;
72864;SDS011;61000;48.120;11.548;2022-07-22T03:26:40;17.77;;;13.68;;
72864;SDS011;61000;48.120;11.548;2022-07-22T03:29:07;16.58;;;14.32;;
72864;SDS011;61000;48.120;11.548;2022-07-22T03:31:34;16.95;;;13.65;;
72864;SDS011;61000;48.120;11.548;2022-07-22T03:34:01;15.38;;;13.30;;
72864;SDS011;61000;48.120;11.548;2022-07-22T03:36:33;16.15;;;14.20;;
72864;SDS011;61000;48.120;11.548;2022-07-22T03:39:01;17.35;;;14.10;;
72864;SDS011;61000;48.120;11.548;2022-07-22T03:41:29;17.45;;;13.98;;
72864;SDS011;61000;48.120;11.548;2022-07-22T03:43:56;16.73;;;13.77;;
72864;SDS011;61000;48.120;11.548;2022-07-22T03:46:23;16.13;;;13.48;;
72864;SDS011;61000;48.120;11.548;2022-07-22T03:48:49;17.20;;;12.98;;
72864;SDS011;61000;48.120;11.548;2022-07-22T03:51:17;16.10;;;13.70;;
72864;SDS011;61000;48.120;11.548;2022-07-22T03:53:44;14.48;;;12.77;;
72864;SDS011;61000;48.120;11.548;2022-07-22T03:56:12;19.35;;;14.20;;
72864;SDS011;61000;48.120;11.548;2022-07-22T03:58:39;17.65;;;13.75;;
72864;SDS011;61000;48.120;11.548;2022-07-22T04:01:06;16.35;;;13.73;;
72864;SDS011;61000;48.120;11.548;2022-07-22T04:03:33;14.88;;;12.75;;
72864;SDS011;61000;48.120;11.548;2022-07-22T04:06:12;21.48;;;13.32;;
72864;SDS011;61000;48.120;11.548;2022-07-22T04:08:44;16.88;;;13.82;;
72864;SDS011;61000;48.120;11.548;2022-07-22T04:11:13;14.93;;;13.23;;
72864;SDS011;61000;48.120;11.548;2022-07-22T04:13:40;17.55;;;14.02;;
72864;SDS011;61000;48.120;11.548;2022-07-22T04:16:07;16.83;;;14.40;;
72864;SDS011;61000;48.120;11.548;2022-07-22T04:18:36;21.40;;;14.40;;
72864;SDS011;61000;48.120;11.548;2022-07-22T04:21:03;19.23;;;15.40;;
72864;SDS011;61000;48.120;11.548;2022-07-22T04:23:44;15.88;;;13.10;;
72864;SDS011;61000;48.120;11.548;2022-07-22T04:26:17;17.08;;;14.48;;
72864;SDS011;61000;48.120;11.548;2022-07-22T04:28:44;16.92;;;13.88;;
72864;SDS011;61000;48.120;11.548;2022-07-22T04:31:11;17.88;;;14.77;;
72864;SDS011;61000;48.120;11.548;2022-07-22T04:33:40;17.20;;;14.27;;
72864;SDS011;61000;48.120;11.548;2022-07-22T04:36:07;18.17;;;14.07;;
72864;SDS011;61000;48.120;11.548;2022-07-22T04:38:34;17.25;;;14.23;;
72864;SDS011;61000;48.120;11.548;2022-07-22T04:41:03;16.73;;;13.55;;
72864;SDS011;61000;48.120;11.548;2022-07-22T04:43:32;18.23;;;14.45;;
72864;SDS011;61000;48.120;11.548;2022-07-22T04:45:59;19.63;;;14.13;;
72864;SDS011;61000;48.120;11.548;2022-07-22T04:48:31;18.67;;;14.40;;
72864;SDS011;61000;48.120;11.548;2022-07-22T04:50:58;18.40;;;14.20;;
72864;SDS011;61000;48.120;11.548;2022-07-22T04:53:26;17.05;;;13.75;;
72864;SDS011;61000;48.120;11.548;2022-07-22T04:55:53;16.90;;;14.15;;
72864;SDS011;61000;48.120;11.548;2022-07-22T04:58:22;17.75;;;14.25;;
72864;SDS011;61000;48.120;11.548;2022-07-22T05:00:51;18.42;;;14.35;;
72864;SDS011;61000;48.120;11.548;2022-07-22T05:03:18;15.43;;;13.77;;
72864;SDS011;61000;48.120;11.548;2022-07-22T05:05:45;19.13;;;14.20;;
72864;SDS011;61000;48.120;11.548;2022-07-22T05:08:16;17.20;;;14.88;;
72864;SDS011;61000;48.120;11.548;2022-07-22T05:10:43;16.27;;;13.63;;
72864;SDS011;61000;48.120;11.548;2022-07-22T05:13:11;17.00;;;13.80;;
72864;SDS011;61000;48.120;11.548;2022-07-22T05:15:40;20.02;;;15.38;;
72864;SDS011;61000;48.120;11.548;2022-07-22T05:18:08;18.02;;;15.05;;
72864;SDS011;61000;48.120;11.548;2022-07-22T05:20:35;15.57;;;13.80;;
72864;SDS011;61000;48.120;11.548;2022-07-22T05:23:02;17.98;;;14.15;;
72864;SDS011;61000;48.120;11.548;2022-07-22T05:25:31;18.95;;;13.90;;
72864;SDS011;61000;48.120;11.548;2022-07-22T05:27:58;19.02;;;13.35;;
72864;SDS011;61000;48.120;11.548;2022-07-22T05:30:38;17.77;;;13.48;;
72864;SDS011;61000;48.120;11.548;2022-07-22T05:33:06;18.83;;;15.10;;
72864;SDS011;61000;48.120;11.548;2022-07-22T05:35:53;18.30;;;12.95;;
72864;SDS011;61000;48.120;11.548;2022-07-22T05:38:21;16.40;;;12.75;;
72864;SDS011;61000;48.120;11.548;2022-07-22T05:40:48;18.20;;;13.23;;
72864;SDS011;61000;48.120;11.548;2022-07-22T05:43:15;16.65;;;12.82;;
72864;SDS011;61000;48.120;11.548;2022-07-22T05:45:42;17.88;;;13.30;;
72864;SDS011;61000;48.120;11.548;2022-07-22T05:48:09;14.68;;;12.40;;
72864;SDS011;61000;48.120;11.548;2022-07-22T05:50:36;17.13;;;13.82;;
72864;SDS011;61000;48.120;11.548;2022-07-22T05:53:05;17.77;;;13.02;;
72864;SDS011;61000;48.120;11.548;2022-07-22T05:55:32;14.55;;;12.70;;
72864;SDS011;61000;48.120;11.548;2022-07-22T05:57:59;15.65;;;12.25;;
72864;SDS011;61000;48.120;11.548;2022-07-22T06:00:26;16.77;;;12.77;;
72864;SDS011;61000;48.120;11.548;2022-07-22T06:02:53;15.30;;;12.80;;
72864;SDS011;61000;48.120;11.548;2022-07-22T06:05:21;16.92;;;12.73;;
72864;SDS011;61000;48.120;11.548;2022-07-22T06:07:48;15.32;;;12.10;;
72864;SDS011;61000;48.120;11.548;2022-07-22T06:10:29;14.35;;;11.30;;
72864;SDS011;61000;48.120;11.548;2022-07-22T06:12:56;14.55;;;12.30;;
72864;SDS011;61000;48.120;11.548;2022-07-22T06:15:23;15.75;;;13.02;;
72864;SDS011;61000;48.120;11.548;2022-07-22T06:17:51;14.20;;;12.35;;
72864;SDS011;61000;48.120;11.548;2022-07-22T06:20:18;18.70;;;12.73;;
72864;SDS011;61000;48.120;11.548;2022-07-22T06:22:45;19.30;;;13.20;;
72864;SDS011;61000;48.120;11.548;2022-07-22T06:25:13;17.52;;;12.85;;
72864;SDS011;61000;48.120;11.548;2022-07-22T06:27:41;18.40;;;13.23;;
72864;SDS011;61000;48.120;11.548;2022-07-22T06:30:08;17.20;;;13.50;;
72864;SDS011;61000;48.120;11.548;2022-07-22T06:32:37;17.48;;;13.10;;
72864;SDS011;61000;48.120;11.548;2022-07-22T06:35:04;18.13;;;13.68;;
72864;SDS011;61000;48.120;11.548;2022-07-22T06:37:32;17.55;;;12.77;;
72864;SDS011;61000;48.120;11.548;2022-07-22T06:39:58;15.13;;;11.85;;
72864;SDS011;61000;48.120;11.548;2022-07-22T06:42:46;14.20;;;12.45;;
72864;SDS011;61000;48.120;11.548;2022-07-22T06:45:33;16.02;;;12.50;;
72864;SDS011;61000;48.120;11.548;2022-07-22T06:48:09;13.70;;;12.15;;
72864;SDS011;61000;48.120;11.548;2022-07-22T06:50:37;18.92;;;13.63;;
72864;SDS011;61000;48.120;11.548;2022-07-22T06:53:10;18.80;;;12.82;;
72864;SDS011;61000;48.120;11.548;2022-07-22T06:55:38;15.38;;;12.45;;
72864;SDS011;61000;48.120;11.548;2022-07-22T06:58:09;16.60;;;12.15;;
72864;SDS011;61000;48.120;11.548;2022-07-22T07:00:37;18.25;;;12.77;;
72864;SDS011;61000;48.120;11.548;2022-07-22T07:03:22;15.63;;;12.68;;
72864;SDS011;61000;48.120;11.548;2022-07-22T07:05:51;17.38;;;13.05;;
72864;SDS011;61000;48.120;11.548;2022-07-22T07:08:19;17.35;;;12.70;;
72864;SDS011;61000;48.120;11.548;2022-07-22T07:10:46;17.52;;;12.80;;
72864;SDS011;61000;48.120;11.548;2022-07-22T07:13:15;20.08;;;11.85;;
72864;SDS011;61000;48.120;11.548;2022-07-22T07:15:43;14.57;;;11.95;;
72864;SDS011;61000;48.120;11.548;2022-07-22T07:18:10;13.55;;;12.10;;
72864;SDS011;61000;48.120;11.548;2022-07-22T07:20:38;16.52;;;12.75;;
72864;SDS011;61000;48.120;11.548;2022-07-22T07:23:07;16.52;;;11.77;;
72864;SDS011;61000;48.120;11.548;2022-07-22T07:25:40;16.63;;;12.13;;
72864;SDS011;61000;48.120;11.548;2022-07-22T07:28:07;14.75;;;11.82;;
72864;SDS011;61000;48.120;11.548;2022-07-22T07:30:54;13.48;;;11.30;;
72864;SDS011;61000;48.120;11.548;2022-07-22T07:33:21;13.85;;;11.23;;
72864;SDS011;61000;48.120;11.548;2022-07-22T07:35:50;13.13;;;11.48;;
72864;SDS011;61000;48.120;11.548;2022-07-22T07:38:26;16.02;;;12.43;;
72864;SDS011;61000;48.120;11.548;2022-07-22T07:40:53;16.52;;;11.80;;
72864;SDS011;61000;48.120;11.548;2022-07-22T07:43:20;30.15;;;11.70;;
72864;SDS011;61000;48.120;11.548;2022-07-22T07:45:48;20.40;;;11.25;;
72864;SDS011;61000;48.120;11.548;2022-07-22T07:48:16;14.07;;;11.35;;
72864;SDS011;61000;48.120;11.548;2022-07-22T07:50:43;19.33;;;11.90;;
72864;SDS011;61000;48.120;11.548;2022-07-22T07:53:13;16.27;;;11.15;;
72864;SDS011;61000;48.120;11.548;2022-07-22T07:55:40;15.45;;;11.48;;
72864;SDS011;61000;48.120;11.548;2022-07-22T07:58:07;12.63;;;11.02;;
72864;SDS011;61000;48.120;11.548;2022-07-22T08:00:35;11.65;;;10.43;;
72864;SDS011;61000;48.120;11.548;2022-07-22T08:03:05;15.55;;;11.02;;
72864;SDS011;61000;48.120;11.548;2022-07-22T08:05:34;12.32;;;11.00;;
72864;SDS011;61000;48.120;11.548;2022-07-22T08:08:01;12.77;;;10.27;;
72864;SDS011;61000;48.120;11.548;2022-07-22T08:10:28;12.38;;;10.25;;
72864;SDS011;61000;48.120;11.548;2022-07-22T08:13:08;11.30;;;10.05;;
72864;SDS011;61000;48.120;11.548;2022-07-22T08:15:54;14.07;;;9.85;;
72864;SDS011;61000;48.120;11.548;2022-07-22T08:18:22;15.32;;;10.10;;
72864;SDS011;61000;48.120;11.548;2022-07-22T08:20:50;14.25;;;10.65;;
72864;SDS011;61000;48.120;11.548;2022-07-22T08:23:20;14.30;;;10.13;;
72864;SDS011;61000;48.120;11.548;2022-07-22T08:25:47;12.30;;;10.02;;
72864;SDS011;61000;48.120;11.548;2022-07-22T08:28:14;11.60;;;9.40;;
72864;SDS011;61000;48.120;11.548;2022-07-22T08:30:42;12.07;;;9.85;;
72864;SDS011;61000;48.120;11.548;2022-07-22T08:33:09;13.27;;;10.63;;
72864;SDS011;61000;48.120;11.548;2022-07-22T08:35:37;10.55;;;9.45;;
72864;SDS011;61000;48.120;11.548;2022-07-22T08:38:05;12.15;;;10.48;;
72864;SDS011;61000;48.120;11.548;2022-07-22T08:40:33;13.98;;;10.35;;
72864;SDS011;61000;48.120;11.548;2022-07-22T08:43:03;12.07;;;9.88;;
72864;SDS011;61000;48.120;11.548;2022-07-22T08:45:31;12.98;;;9.90;;
72864;SDS011;61000;48.120;11.548;2022-07-22T08:47:58;12.63;;;10.05;;
72864;SDS011;61000;48.120;11.548;2022-07-22T08:50:43;15.65;;;10.38;;
72864;SDS011;61000;48.120;11.548;2022-07-22T08:53:29;11.30;;;9.57;;
72864;SDS011;61000;48.120;11.548;2022-07-22T08:56:02;13.10;;;9.68;;
72864;SDS011;61000;48.120;11.548;2022-07-22T08:58:29;12.23;;;10.10;;
72864;SDS011;61000;48.120;11.548;2022-07-22T09:01:06;12.15;;;9.77;;
72864;SDS011;61000;48.120;11.548;2022-07-22T09:03:43;10.15;;;9.07;;
72864;SDS011;61000;48.120;11.548;2022-07-22T09:06:12;11.70;;;9.35;;
72864;SDS011;61000;48.120;11.548;2022-07-22T09:08:51;10.25;;;9.10;;
72864;SDS011;61000;48.120;11.548;2022-07-22T09:11:44;11.85;;;9.55;;
72864;SDS011;61000;48.120;11.548;2022-07-22T09:14:44;11.40;;;10.05;;
72864;SDS011;61000;48.120;11.548;2022-07-22T09:17:50;10.38;;;8.70;;
72864;SDS011;61000;48.120;11.548;2022-07-22T09:20:34;8.68;;;7.95;;
72864;SDS011;61000;48.120;11.548;2022-07-22T09:23:20;14.45;;;7.82;;
72864;SDS011;61000;48.120;11.548;2022-07-22T09:25:51;9.43;;;7.38;;
72864;SDS011;61000;48.120;11.548;2022-07-22T09:28:32;7.72;;;6.93;;
72864;SDS011;61000;48.120;11.548;2022-07-22T09:31:32;8.73;;;6.75;;
72864;SDS011;61000;48.120;11.548;2022-07-22T09:34:08;9.15;;;6.75;;
72864;SDS011;61000;48.120;11.548;2022-07-22T09:36:53;7.38;;;6.50;;
72864;SDS011;61000;48.120;11.548;2022-07-22T09:39:25;7.20;;;6.50;;
72864;SDS011;61000;48.120;11.548;2022-07-22T09:41:57;8.23;;;6.40;;
72864;SDS011;61000;48.120;11.548;2022-07-22T09:44:25;8.45;;;6.68;;
72864;SDS011;61000;48.120;11.548;2022-07-22T09:46:54;7.90;;;6.22;;
72864;SDS011;61000;48.120;11.548;2022-07-22T09:49:46;6.43;;;5.82;;
72864;SDS011;61000;48.120;11.548;2022-07-22T09:52:34;6.45;;;5.95;;
72864;SDS011;61000;48.120;11.548;2022-07-22T09:55:08;6.43;;;5.82;;
72864;SDS011;61000;48.120;11.548;2022-07-22T09:57:38;12.60;;;6.35;;
72864;SDS011;61000;48.120;11.548;2022-07-22T10:00:07;9.73;;;6.38;;
72864;SDS011;61000;48.120;11.548;2022-07-22T10:02:45;6.65;;;5.72;;
72864;SDS011;61000;48.120;11.548;2022-07-22T10:05:14;6.38;;;5.80;;
72864;SDS011;61000;48.120;11.548;2022-07-22T10:07:44;7.55;;;6.03;;
72864;SDS011;61000;48.120;11.548;2022-07-22T10:10:12;7.93;;;6.15;;
72864;SDS011;61000;48.120;11.548;2022-07-22T10:12:42;8.57;;;5.45;;
72864;SDS011;61000;48.120;11.548;2022-07-22T10:15:10;10.10;;;6.00;;
72864;SDS011;61000;48.120;11.548;2022-07-22T10:17:38;7.35;;;6.05;;
72864;SDS011;61000;48.120;11.548;2022-07-22T10:20:08;6.30;;;5.80;;
72864;SDS011;61000;48.120;11.548;2022-07-22T10:22:47;7.97;;;5.57;;
72864;SDS011;61000;48.120;11.548;2022-07-22T10:25:18;5.78;;;5.20;;
72864;SDS011;61000;48.120;11.548;2022-07-22T10:27:49;6.57;;;5.85;;
72864;SDS011;61000;48.120;11.548;2022-07-22T10:30:17;6.43;;;5.50;;
72864;SDS011;61000;48.120;11.548;2022-07-22T10:32:49;7.45;;;5.28;;
72864;SDS011;61000;48.120;11.548;2022-07-22T10:35:29;5.78;;;5.30;;
72864;SDS011;61000;48.120;11.548;2022-07-22T10:38:02;6.05;;;5.45;;
72864;SDS011;61000;48.120;11.548;2022-07-22T10:40:33;6.05;;;5.55;;
72864;SDS011;61000;48.120;11.548;2022-07-22T10:43:14;7.47;;;6.00;;
72864;SDS011;61000;48.120;11.548;2022-07-22T10:45:44;6.35;;;5.75;;
72864;SDS011;61000;48.120;11.548;2022-07-22T10:48:14;10.35;;;5.80;;
72864;SDS011;61000;48.120;11.548;2022-07-22T10:50:45;7.22;;;5.88;;
72864;SDS011;61000;48.120;11.548;2022-07-22T10:53:15;8.18;;;6.43;;
72864;SDS011;61000;48.120;11.548;2022-07-22T11:01:28;7.30;;;6.57;;
72864;SDS011;61000;48.120;11.548;2022-07-22T11:04:06;7.57;;;6.78;;
72864;SDS011;61000;48.120;11.548;2022-07-22T11:06:35;9.40;;;7.53;;
72864;SDS011;61000;48.120;11.548;2022-07-22T11:09:02;8.45;;;7.65;;
72864;SDS011;61000;48.120;11.548;2022-07-22T11:11:31;8.95;;;6.93;;
72864;SDS011;61000;48.120;11.548;2022-07-22T11:14:02;16.77;;;11.23;;
72864;SDS011;61000;48.120;11.548;2022-07-22T11:16:30;18.40;;;10.20;;
72864;SDS011;61000;48.120;11.548;2022-07-22T11:18:57;11.00;;;7.55;;
72864;SDS011;61000;48.120;11.548;2022-07-22T11:21:26;12.10;;;8.90;;
72864;SDS011;61000;48.120;11.548;2022-07-22T11:23:55;19.65;;;13.32;;
72864;SDS011;61000;48.120;11.548;2022-07-22T11:26:25;11.35;;;8.60;;
72864;SDS011;61000;48.120;11.548;2022-07-22T11:28:57;10.95;;;7.63;;
72864;SDS011;61000;48.120;11.548;2022-07-22T11:31:27;8.07;;;7.28;;
72864;SDS011;61000;48.120;11.548;2022-07-22T11:34:03;13.40;;;10.05;;
72864;SDS011;61000;48.120;11.548;2022-07-22T11:36:31;8.25;;;7.28;;
72864;SDS011;61000;48.120;11.548;2022-07-22T11:38:59;8.52;;;7.40;;
72864;SDS011;61000;48.120;11.548;2022-07-22T11:41:28;11.88;;;8.68;;
72864;SDS011;61000;48.120;11.548;2022-07-22T11:43:56;13.50;;;9.77;;
72864;SDS011;61000;48.120;11.548;2022-07-22T11:46:24;9.40;;;7.63;;
72864;SDS011;61000;48.120;11.548;2022-07-22T11:48:53;10.45;;;8.90;;
72864;SDS011;61000;48.120;11.548;2022-07-22T11:51:26;7.85;;;7.05;;
72864;SDS011;61000;48.120;11.548;2022-07-22T11:53:54;10.27;;;7.95;;
72864;SDS011;61000;48.120;11.548;2022-07-22T11:56:21;8.85;;;7.25;;
72864;SDS011;61000;48.120;11.548;2022-07-22T11:58:49;9.30;;;7.85;;
72864;SDS011;61000;48.120;11.548;2022-07-22T12:01:19;12.68;;;8.15;;
72864;SDS011;61000;48.120;11.548;2022-07-22T12:03:48;7.88;;;7.07;;
72864;SDS011;61000;48.120;11.548;2022-07-22T12:06:18;8.02;;;7.22;;
72864;SDS011;61000;48.120;11.548;2022-07-22T12:08:48;10.13;;;7.35;;
72864;SDS011;61000;48.120;11.548;2022-07-22T12:11:17;8.43;;;7.10;;
72864;SDS011;61000;48.120;11.548;2022-07-22T12:13:47;8.57;;;6.80;;
72864;SDS011;61000;48.120;11.548;2022-07-22T12:16:24;9.57;;;7.47;;
72864;SDS011;61000;48.120;11.548;2022-07-22T12:18:54;9.63;;;6.80;;
72864;SDS011;61000;48.120;11.548;2022-07-22T12:21:24;9.82;;;7.00;;
72864;SDS011;61000;48.120;11.548;2022-07-22T12:23:53;7.55;;;6.85;;
72864;SDS011;61000;48.120;11.548;2022-07-22T12:26:41;8.18;;;7.28;;
72864;SDS011;61000;48.120;11.548;2022-07-22T12:29:13;9.02;;;7.32;;
72864;SDS011;61000;48.120;11.548;2022-07-22T12:31:45;9.60;;;7.63;;
72864;SDS011;61000;48.120;11.548;2022-07-22T12:34:12;7.60;;;6.53;;
72864;SDS011;61000;48.120;11.548;2022-07-22T12:36:44;9.45;;;7.15;;
72864;SDS011;61000;48.120;11.548;2022-07-22T12:39:12;9.30;;;7.00;;
72864;SDS011;61000;48.120;11.548;2022-07-22T12:41:48;8.30;;;7.35;;
72864;SDS011;61000;48.120;11.548;2022-07-22T12:44:16;9.88;;;7.47;;
72864;SDS011;61000;48.120;11.548;2022-07-22T12:46:46;8.85;;;7.30;;
72864;SDS011;61000;48.120;11.548;2022-07-22T12:49:15;7.90;;;7.03;;
72864;SDS011;61000;48.120;11.548;2022-07-22T12:54:33;9.00;;;8.07;;
72864;SDS011;61000;48.120;11.548;2022-07-22T12:57:01;8.32;;;7.53;;
72864;SDS011;61000;48.120;11.548;2022-07-22T12:59:28;8.15;;;7.13;;
72864;SDS011;61000;48.120;11.548;2022-07-22T13:01:55;8.32;;;7.63;;
72864;SDS011;61000;48.120;11.548;2022-07-22T13:04:23;8.80;;;7.68;;
72864;SDS011;61000;48.120;11.548;2022-07-22T13:06:50;9.00;;;7.10;;
72864;SDS011;61000;48.120;11.548;2022-07-22T13:09:18;8.77;;;7.47;;
72864;SDS011;61000;48.120;11.548;2022-07-22T13:11:45;8.68;;;7.88;;
72864;SDS011;61000;48.120;11.548;2022-07-22T13:14:13;10.63;;;7.78;;
72864;SDS011;61000;48.120;11.548;2022-07-22T13:16:40;11.75;;;7.05;;
72864;SDS011;61000;48.120;11.548;2022-07-22T13:19:07;8.60;;;7.38;;
72864;SDS011;61000;48.120;11.548;2022-07-22T13:21:34;12.70;;;7.13;;
72864;SDS011;61000;48.120;11.548;2022-07-22T13:24:01;8.70;;;7.68;;
72864;SDS011;61000;48.120;11.548;2022-07-22T13:26:29;8.23;;;7.05;;
72864;SDS011;61000;48.120;11.548;2022-07-22T13:28:56;10.40;;;7.30;;
72864;SDS011;61000;48.120;11.548;2022-07-22T13:31:23;9.82;;;7.60;;
72864;SDS011;61000;48.120;11.548;2022-07-22T13:33:52;8.63;;;7.45;;
72864;SDS011;61000;48.120;11.548;2022-07-22T13:36:18;8.40;;;7.45;;
72864;SDS011;61000;48.120;11.548;2022-07-22T13:38:48;8.38;;;7.57;;
72864;SDS011;61000;48.120;11.548;2022-07-22T13:41:16;9.55;;;7.40;;
72864;SDS011;61000;48.120;11.548;2022-07-22T13:43:45;12.63;;;7.65;;
72864;SDS011;61000;48.120;11.548;2022-07-22T13:46:14;8.48;;;7.00;;
72864;SDS011;61000;48.120;11.548;2022-07-22T13:48:41;8.25;;;7.13;;
72864;SDS011;61000;48.120;11.548;2022-07-22T13:51:08;8.32;;;7.35;;
72864;SDS011;61000;48.120;11.548;2022-07-22T13:53:35;7.82;;;7.03;;
72864;SDS011;61000;48.120;11.548;2022-07-22T13:56:02;11.63;;;6.93;;
72864;SDS011;61000;48.120;11.548;2022-07-22T13:58:29;9.27;;;7.60;;
72864;SDS011;61000;48.120;11.548;2022-07-22T14:00:58;8.57;;;7.05;;
72864;SDS011;61000;48.120;11.548;2022-07-22T14:03:25;11.73;;;6.82;;
72864;SDS011;61000;48.120;11.548;2022-07-22T14:05:52;9.40;;;8.15;;
72864;SDS011;61000;48.120;11.548;2022-07-22T14:08:19;8.90;;;7.97;;
72864;SDS011;61000;48.120;11.548;2022-07-22T14:10:46;8.25;;;7.25;;
72864;SDS011;61000;48.120;11.548;2022-07-22T14:13:13;9.18;;;7.80;;
72864;SDS011;61000;48.120;11.548;2022-07-22T14:15:40;8.00;;;7.30;;
72864;SDS011;61000;48.120;11.548;2022-07-22T14:18:08;8.35;;;7.13;;
72864;SDS011;61000;48.120;11.548;2022-07-22T14:20:35;8.90;;;7.18;;
72864;SDS011;61000;48.120;11.548;2022-07-22T14:23:02;10.93;;;7.57;;
72864;SDS011;61000;48.120;11.548;2022-07-22T14:25:30;10.38;;;7.18;;
72864;SDS011;61000;48.120;11.548;2022-07-22T14:27:57;8.07;;;7.35;;
72864;SDS011;61000;48.120;11.548;2022-07-22T14:30:24;10.25;;;7.75;;
72864;SDS011;61000;48.120;11.548;2022-07-22T14:32:53;10.32;;;7.38;;
72864;SDS011;61000;48.120;11.548;2022-07-22T14:35:21;8.77;;;7.45;;
72864;SDS011;61000;48.120;11.548;2022-07-22T14:37:48;9.00;;;7.25;;
72864;SDS011;61000;48.120;11.548;2022-07-22T14:40:15;9.93;;;7.25;;
72864;SDS011;61000;48.120;11.548;2022-07-22T14:42:42;8.65;;;7.78;;